Time;durP1;ratioP1;P1;durP2;ratioP2;P2;SDS_P1;SDS_P2;PMS_P1;PMS_P2;Temp;Humidity;BMP_temperature;BMP_pressure;BME280_temperature;BME280_humidity;BME280_pressure;Samples;Min_cycle;Max_cycle;Signal;HPM_P1;HPM_P2
2022/06/16 00:01:01;;;;;;;2.20;1.10;;;;;;;14.07;76.71;102051.75;5050554;28;20052;-77
2022/06/16 00:03:26;;;;;;;0.93;0.80;;;;;;;14.02;76.61;102038.91;5033545;28;20036;-77
2022/06/16 00:05:52;;;;;;;1.25;0.88;;;;;;;14.07;77.13;102046.47;5016354;28;20021;-77
2022/06/16 00:08:18;;;;;;;3.08;0.80;;;;;;;14.08;77.61;102042.81;5033377;28;20076;-77
2022/06/16 00:13:31;;;;;;;0.47;0.32;;;;;;;14.04;76.63;102049.38;5050613;28;20035;-77
2022/06/16 00:15:58;;;;;;;1.58;1.02;;;;;;;13.94;78.85;102036.16;5050445;28;20405;-76
2022/06/16 00:18:23;;;;;;;1.45;0.98;;;;;;;13.91;79.02;102055.81;5047971;28;20071;-77
2022/06/16 00:20:49;;;;;;;1.00;0.82;;;;;;;13.88;77.94;102058.78;5029274;28;20029;-77
2022/06/16 00:23:14;;;;;;;0.70;0.45;;;;;;;13.87;77.96;102056.25;5032894;28;20022;-77
2022/06/16 00:25:40;;;;;;;2.33;0.68;;;;;;;13.84;77.41;102046.75;5050749;28;20025;-77
2022/06/16 00:28:05;;;;;;;1.40;0.90;;;;;;;13.80;76.21;102053.31;5050864;28;20029;-77
2022/06/16 00:30:30;;;;;;;1.38;0.75;;;;;;;13.79;76.58;102060.44;5048978;28;20020;-77
2022/06/16 00:32:56;;;;;;;0.93;0.52;;;;;;;13.76;77.07;102066.06;5033855;28;20093;-77
2022/06/16 00:35:21;;;;;;;2.05;0.82;;;;;;;13.74;77.76;102072.44;5032491;28;20032;-77
2022/06/16 00:37:47;;;;;;;2.13;0.75;;;;;;;13.70;78.06;102057.81;5000073;28;20060;-76
2022/06/16 00:40:12;;;;;;;3.45;0.45;;;;;;;13.47;78.01;102010.34;5032045;28;20140;-77
2022/06/16 00:42:38;;;;;;;1.27;1.15;;;;;;;13.57;78.71;102024.47;5049643;28;20037;-77
2022/06/16 00:45:42;;;;;;;0.60;0.55;;;;;;;13.63;77.11;102056.69;5033019;28;20029;-78
2022/06/16 00:48:16;;;;;;;2.85;0.70;;;;;;;13.45;77.33;102025.56;5050527;28;20031;-78
2022/06/16 00:50:42;;;;;;;0.90;0.60;;;;;;;13.54;76.78;102032.69;5045713;28;20480;-78
2022/06/16 00:53:08;;;;;;;0.95;0.52;;;;;;;13.53;78.02;102036.31;5029014;28;20115;-77
2022/06/16 00:55:34;;;;;;;0.70;0.47;;;;;;;13.61;77.69;102050.69;5015827;28;20037;-77
2022/06/16 00:58:00;;;;;;;3.55;1.02;;;;;;;13.49;78.42;102037.56;5050651;28;20025;-76
2022/06/16 01:03:09;;;;;;;1.05;0.63;;;;;;;13.54;78.32;102067.19;5069115;28;20078;-78
2022/06/16 01:05:35;;;;;;;0.80;0.60;;;;;;;13.51;78.99;102051.53;5069708;28;20480;-78
2022/06/16 01:08:01;;;;;;;0.82;0.65;;;;;;;13.25;78.83;102010.63;5085920;28;20119;-78
2022/06/16 01:10:37;;;;;;;2.30;0.80;;;;;;;13.39;80.38;102026.13;5067756;28;20020;-77
2022/06/16 01:16:27;;;;;;;1.65;1.05;;;;;;;13.44;79.43;102034.50;5070498;28;20039;-77
2022/06/16 01:19:14;;;;;;;0.93;0.35;;;;;;;13.43;79.32;102032.81;5057745;28;20036;-77
2022/06/16 01:22:06;;;;;;;1.52;0.73;;;;;;;13.32;78.14;102019.72;5067972;28;20025;-77
2022/06/16 01:24:46;;;;;;;1.25;0.68;;;;;;;13.42;79.67;102048.91;5065097;28;20496;-78
2022/06/16 01:27:18;;;;;;;0.95;0.52;;;;;;;13.42;80.50;102062.16;5069257;28;20420;-78
2022/06/16 01:30:03;;;;;;;2.13;0.65;;;;;;;13.40;80.01;102062.28;5065778;28;20434;-78
2022/06/16 01:32:37;;;;;;;2.13;0.50;;;;;;;13.38;81.23;102053.63;5058177;28;20035;-78
2022/06/16 01:35:31;;;;;;;1.35;0.68;;;;;;;13.36;81.26;102052.94;5084524;28;20119;-78
2022/06/16 01:38:08;;;;;;;2.55;1.13;;;;;;;13.33;82.77;102056.69;5069096;28;20017;-78
2022/06/16 01:40:40;;;;;;;1.77;0.70;;;;;;;13.21;82.01;102049.81;5067604;28;20423;-78
2022/06/16 01:43:20;;;;;;;0.68;0.40;;;;;;;13.33;82.00;102077.06;5069960;28;20033;-78
2022/06/16 01:45:53;;;;;;;1.00;0.70;;;;;;;13.18;79.86;102058.88;5070009;28;20082;-78
2022/06/16 01:48:20;;;;;;;1.10;0.80;;;;;;;13.33;80.96;102085.88;5070143;28;20545;-78
2022/06/16 01:51:10;;;;;;;0.85;0.70;;;;;;;13.32;82.47;102084.16;5066779;28;20025;-78
2022/06/16 01:54:17;;;;;;;0.70;0.60;;;;;;;13.24;85.10;102080.50;5068891;28;20476;-78
2022/06/16 01:56:51;;;;;;;1.38;0.88;;;;;;;13.07;86.72;102069.59;5057788;28;20032;-78
2022/06/16 01:59:23;;;;;;;0.88;0.52;;;;;;;12.83;87.33;102034.69;5068892;28;20076;-78
2022/06/16 02:01:52;;;;;;;1.00;0.45;;;;;;;12.98;86.73;102059.81;5063306;28;20094;-78
2022/06/16 02:04:33;;;;;;;0.95;0.60;;;;;;;13.02;83.35;102060.38;5064881;28;20020;-77
2022/06/16 02:07:00;;;;;;;;;;;;;;;13.05;81.92;102055.66;5081045;28;20039;-77
2022/06/16 02:09:35;;;;;;;1.73;0.68;;;;;;;13.10;82.39;102055.22;5066501;28;19908;-77
2022/06/16 02:12:03;;;;;;;0.70;0.55;;;;;;;13.07;83.18;102052.88;5066250;28;20024;-77
2022/06/16 02:14:36;;;;;;;1.05;0.45;;;;;;;12.94;82.56;102034.56;5069006;28;20020;-77
2022/06/16 02:17:03;;;;;;;1.35;1.25;;;;;;;12.91;81.36;102037.47;5067960;28;20076;-77
2022/06/16 02:19:29;;;;;;;1.02;0.60;;;;;;;13.02;81.28;102060.38;5066803;28;20025;-77
2022/06/16 02:21:55;;;;;;;0.70;0.45;;;;;;;13.08;79.47;102065.13;5048543;28;20125;-77
2022/06/16 02:24:26;;;;;;;0.80;0.50;;;;;;;13.08;80.92;102065.97;5066802;28;20025;-78
2022/06/16 02:26:55;;;;;;;0.80;0.50;;;;;;;13.06;80.91;102051.19;5083535;28;20621;-78
2022/06/16 02:29:37;;;;;;;1.17;0.63;;;;;;;13.00;82.30;102049.94;5067764;28;20091;-78
2022/06/16 02:32:24;;;;;;;1.30;0.80;;;;;;;13.03;81.82;102056.78;5066324;28;20070;-78
2022/06/16 02:35:17;;;;;;;1.10;0.65;;;;;;;13.00;81.74;102052.59;5064885;28;20025;-78
2022/06/16 02:38:06;;;;;;;0.82;0.43;;;;;;;12.93;81.54;102043.47;5067455;28;20317;-78
2022/06/16 02:40:43;;;;;;;2.85;0.75;;;;;;;12.91;84.29;102040.13;5065491;28;20024;-78
2022/06/16 02:43:27;;;;;;;1.23;0.75;;;;;;;12.87;87.98;102044.00;5071965;28;20025;-78
2022/06/16 02:46:00;;;;;;;1.98;0.93;;;;;;;12.71;89.33;102032.13;5070472;28;20032;-78
2022/06/16 02:48:48;;;;;;;0.70;0.55;;;;;;;12.74;86.29;102045.13;5071234;28;20476;-78
2022/06/16 02:51:33;;;;;;;0.28;0.28;;;;;;;12.74;86.03;102047.78;5066807;28;20044;-78
2022/06/16 02:54:10;;;;;;;1.27;0.75;;;;;;;12.80;86.17;102056.13;5072025;28;20016;-78
2022/06/16 02:56:54;;;;;;;0.75;0.65;;;;;;;12.79;84.53;102059.78;5088021;28;20021;-78
2022/06/16 02:59:27;;;;;;;0.88;0.55;;;;;;;12.54;87.37;102020.38;5085553;28;20481;-78
2022/06/16 03:02:02;;;;;;;0.80;0.68;;;;;;;12.67;88.45;102051.06;5068028;28;20038;-78
2022/06/16 03:04:56;;;;;;;4.47;0.73;;;;;;;12.68;86.62;102069.50;5067500;28;20520;-78
2022/06/16 03:07:22;;;;;;;2.70;1.00;;;;;;;12.69;86.47;102072.97;5070290;28;20032;-78
2022/06/16 03:09:47;;;;;;;3.75;0.65;;;;;;;12.72;87.95;102078.84;5073654;28;20085;-78
2022/06/16 03:12:13;;;;;;;1.17;0.93;;;;;;;12.70;90.29;102072.84;5071398;28;20021;-78
2022/06/16 03:14:39;;;;;;;2.72;1.02;;;;;;;12.68;90.05;102077.44;5070855;28;20048;-78
2022/06/16 03:17:06;;;;;;;4.65;1.20;;;;;;;12.69;91.51;102070.31;5072128;28;20122;-77
2022/06/16 03:19:32;;;;;;;0.95;0.60;;;;;;;12.66;90.17;102074.09;5072492;28;20388;-77
2022/06/16 03:21:57;;;;;;;1.27;0.63;;;;;;;12.60;88.20;102058.72;5053900;28;20062;-77
2022/06/16 03:24:24;;;;;;;3.17;1.40;;;;;;;12.76;89.78;102084.72;5054318;28;20074;-79
2022/06/16 03:26:49;;;;;;;0.93;0.70;;;;;;;12.74;88.94;102082.22;5072237;28;20024;-79
2022/06/16 03:29:15;;;;;;;0.88;0.50;;;;;;;12.68;87.26;102080.09;5070921;28;20495;-79
2022/06/16 03:31:41;;;;;;;1.30;0.77;;;;;;;12.65;86.03;102067.13;5050554;28;20033;-77
2022/06/16 03:34:07;;;;;;;1.02;0.50;;;;;;;12.89;87.41;102100.38;5072753;28;20021;-77
2022/06/16 03:36:33;;;;;;;1.40;0.77;;;;;;;12.92;87.86;102105.41;5071355;28;20400;-77
2022/06/16 03:39:01;;;;;;;1.27;0.80;;;;;;;12.94;86.50;102103.47;5070987;28;20027;-77
2022/06/16 03:41:27;;;;;;;0.73;0.65;;;;;;;12.81;86.74;102073.72;5070648;28;20032;-77
2022/06/16 03:43:52;;;;;;;8.52;0.85;;;;;;;13.00;86.17;102104.72;5068782;28;20123;-77
2022/06/16 03:46:18;;;;;;;1.20;0.70;;;;;;;13.02;86.00;102110.72;5069835;28;20119;-77
2022/06/16 03:48:43;;;;;;;1.08;0.60;;;;;;;13.02;86.48;102123.97;5070775;28;20569;-77
2022/06/16 03:51:09;;;;;;;0.70;0.40;;;;;;;12.96;86.90;102120.06;5070366;28;20043;-78
2022/06/16 03:53:38;;;;;;;1.33;0.77;;;;;;;13.06;85.92;102131.53;5070716;28;20028;-78
2022/06/16 03:56:05;;;;;;;2.53;0.60;;;;;;;13.01;87.06;102101.94;5071731;28;20162;-77
2022/06/16 03:58:30;;;;;;;3.22;1.08;;;;;;;13.11;88.65;102117.88;5071102;28;20025;-78
2022/06/16 04:00:55;;;;;;;1.00;0.65;;;;;;;13.03;89.51;102105.31;5052212;28;20060;-78
2022/06/16 04:06:05;;;;;;;1.60;1.00;;;;;;;13.14;88.12;102126.38;5035966;28;20126;-78
2022/06/16 04:08:31;;;;;;;2.05;1.38;;;;;;;13.14;86.04;102126.38;5033596;28;20436;-78
2022/06/16 04:10:57;;;;;;;2.60;0.90;;;;;;;13.14;86.11;102121.09;5031330;28;20542;-78
2022/06/16 04:13:22;;;;;;;1.67;1.00;;;;;;;13.32;86.52;102136.38;5050607;28;20477;-78
2022/06/16 04:15:52;;;;;;;1.70;0.75;;;;;;;13.39;86.22;102142.78;5051324;28;20428;-78
2022/06/16 04:18:21;;;;;;;2.10;1.10;;;;;;;13.33;84.50;102120.34;5031553;28;20025;-78
2022/06/16 04:20:47;;;;;;;0.90;0.60;;;;;;;13.49;84.06;102140.19;5032880;28;20082;-78
2022/06/16 04:23:13;;;;;;;2.00;0.70;;;;;;;13.54;83.67;102140.59;5034230;28;20393;-79
2022/06/16 04:25:39;;;;;;;0.63;0.52;;;;;;;13.65;83.88;102148.41;5048776;28;20029;-80
2022/06/16 04:28:07;;;;;;;2.53;1.10;;;;;;;13.72;83.90;102159.34;5013850;28;20063;-80
2022/06/16 04:30:32;;;;;;;1.10;0.80;;;;;;;13.59;83.69;102127.78;5028434;28;20048;-79
2022/06/16 04:32:58;;;;;;;1.13;0.85;;;;;;;13.69;84.24;102143.69;5030466;28;20588;-79
2022/06/16 04:35:26;;;;;;;3.05;1.08;;;;;;;13.71;84.25;102147.03;5049989;28;20151;-79
2022/06/16 04:37:51;;;;;;;1.98;0.82;;;;;;;13.64;82.90;102130.00;5050950;28;20469;-80
2022/06/16 04:40:17;;;;;;;2.75;0.63;;;;;;;13.62;83.20;102138.09;5032343;28;20568;-80
2022/06/16 04:42:43;;;;;;;1.52;0.75;;;;;;;13.53;82.44;102129.16;5032610;28;20048;-80
2022/06/16 04:45:10;;;;;;;0.80;0.70;;;;;;;13.56;82.32;102128.84;5049921;28;20493;-79
2022/06/16 04:47:37;;;;;;;1.75;0.80;;;;;;;13.66;82.68;102133.34;5033090;28;20032;-80
2022/06/16 04:50:02;;;;;;;1.30;0.90;;;;;;;13.63;82.60;102129.16;5015716;28;20029;-80
2022/06/16 04:52:28;;;;;;;1.60;1.00;;;;;;;13.70;82.73;102122.31;5032124;28;20025;-80
2022/06/16 04:54:53;;;;;;;1.23;0.60;;;;;;;13.87;83.05;102131.41;4998594;28;20539;-80
2022/06/16 04:57:18;;;;;;;3.53;1.35;;;;;;;14.12;82.68;102137.13;5026060;28;20095;-80
2022/06/16 04:59:44;;;;;;;1.67;0.98;;;;;;;14.43;82.09;102150.19;5043747;28;20515;-80
2022/06/16 05:02:09;;;;;;;2.53;0.98;;;;;;;14.53;80.42;102129.75;5032014;28;20063;-81
2022/06/16 05:04:37;;;;;;;2.38;0.90;;;;;;;14.76;80.63;102139.09;5065849;28;20032;-80
2022/06/16 05:07:03;;;;;;;1.77;1.25;;;;;;;14.94;80.41;102156.91;5068103;28;20496;-80
2022/06/16 05:09:28;;;;;;;2.08;1.52;;;;;;;15.14;80.55;102171.78;5049352;28;20044;-80
2022/06/16 05:11:54;;;;;;;5.30;0.90;;;;;;;15.05;80.11;102140.78;5068338;28;20033;-80
2022/06/16 05:14:20;;;;;;;1.10;0.70;;;;;;;15.19;80.55;102153.56;5065469;28;20035;-80
2022/06/16 05:16:47;;;;;;;3.58;1.00;;;;;;;15.29;81.05;102160.66;5066513;28;20126;-79
2022/06/16 05:19:13;;;;;;;2.97;1.30;;;;;;;15.32;80.95;102202.91;5067150;28;20058;-79
2022/06/16 05:21:38;;;;;;;3.65;1.05;;;;;;;15.33;81.38;102192.13;5068089;28;20132;-79
2022/06/16 05:24:04;;;;;;;1.75;1.35;;;;;;;15.36;82.89;102189.16;5042738;28;20583;-79
2022/06/16 05:26:29;;;;;;;1.50;1.20;;;;;;;15.41;83.32;102202.84;5032364;28;20048;-80
2022/06/16 05:28:55;;;;;;;3.50;1.35;;;;;;;15.46;82.88;102199.75;5065502;28;20337;-80
2022/06/16 05:31:20;;;;;;;1.45;1.00;;;;;;;15.68;83.85;102197.63;5081455;28;20170;-80
2022/06/16 05:33:46;;;;;;;3.95;1.65;;;;;;;15.85;82.86;102199.50;5064914;28;20036;-80
2022/06/16 05:36:12;;;;;;;1.30;1.00;;;;;;;16.06;81.49;102212.53;5068742;28;20460;-80
2022/06/16 05:38:38;;;;;;;0.85;0.65;;;;;;;16.12;82.33;102205.75;5067808;28;20032;-80
2022/06/16 05:41:07;;;;;;;1.20;0.90;;;;;;;16.44;80.94;102211.34;5066683;28;20443;-80
2022/06/16 05:43:34;;;;;;;3.08;1.20;;;;;;;16.72;79.17;102213.84;5065460;28;20034;-78
2022/06/16 05:46:00;;;;;;;1.23;0.60;;;;;;;16.92;78.91;102208.31;5064834;28;20028;-81
2022/06/16 05:48:27;;;;;;;1.80;1.23;;;;;;;17.19;79.53;102208.13;5065682;28;20028;-81
2022/06/16 05:50:54;;;;;;;1.95;1.00;;;;;;;17.51;77.68;102213.75;5064089;28;20491;-81
2022/06/16 05:53:19;;;;;;;1.08;0.60;;;;;;;17.61;77.74;102199.25;5066432;28;20147;-81
2022/06/16 05:55:45;;;;;;;1.48;0.73;;;;;;;17.65;76.65;102189.91;5061652;28;20058;-81
2022/06/16 05:58:11;;;;;;;1.30;0.70;;;;;;;17.72;76.18;102189.28;5032598;28;20039;-81
2022/06/16 06:00:43;;;;;;;3.58;0.82;;;;;;;17.89;74.88;102215.03;5069101;28;20131;-80
2022/06/16 06:03:08;;;;;;;1.52;0.57;;;;;;;17.96;74.80;102218.69;5075166;28;20090;-82
2022/06/16 06:05:34;;;;;;;1.15;0.60;;;;;;;18.08;73.37;102222.72;5068352;28;20028;-81
2022/06/16 06:16:25;;;;;;;1.95;0.70;;;;;;;18.58;73.48;102241.44;5066620;28;20610;-82
2022/06/16 06:18:51;;;;;;;0.93;0.60;;;;;;;18.67;71.88;102224.38;5050146;28;20028;-82
2022/06/16 06:21:16;;;;;;;0.47;0.30;;;;;;;18.60;72.71;102223.41;5067620;28;20536;-82
2022/06/16 06:23:41;;;;;;;2.90;0.60;;;;;;;18.54;72.02;102211.53;5032826;28;20440;-82
2022/06/16 06:26:08;;;;;;;0.50;0.43;;;;;;;18.70;72.13;102226.69;5036331;28;20078;-82
2022/06/16 06:28:34;;;;;;;1.10;0.75;;;;;;;18.68;72.62;102234.06;5067745;28;20032;-82
2022/06/16 06:30:59;;;;;;;2.55;0.57;;;;;;;18.49;73.18;102209.38;5068881;28;20044;-82
2022/06/16 06:33:25;;;;;;;0.80;0.63;;;;;;;18.75;74.16;102223.50;5067744;28;20055;-82
2022/06/16 06:35:50;;;;;;;1.30;0.60;;;;;;;19.55;71.99;102222.56;5049486;28;20082;-82
2022/06/16 06:38:15;;;;;;;3.42;0.65;;;;;;;20.34;69.71;102242.00;5067546;28;20017;-82
2022/06/16 06:40:41;;;;;;;0.95;0.50;;;;;;;20.90;67.00;102212.94;5047420;28;20037;-82
2022/06/16 06:43:06;;;;;;;0.65;0.45;;;;;;;21.61;64.88;102228.53;5065447;28;20557;-82
2022/06/16 06:45:32;;;;;;;1.00;0.43;;;;;;;22.26;62.40;102242.03;5066392;28;20082;-82
2022/06/16 06:47:58;;;;;;;0.85;0.32;;;;;;;22.52;61.35;102223.41;5067343;28;20082;-82
2022/06/16 06:50:31;;;;;;;1.33;0.40;;;;;;;22.91;60.28;102240.00;5064330;28;20503;-82
2022/06/16 06:52:56;;;;;;;2.90;0.75;;;;;;;22.16;61.22;102227.00;5066438;28;20028;-82
2022/06/16 06:55:22;;;;;;;1.20;0.50;;;;;;;21.82;62.85;102232.25;5065027;28;20036;-82
2022/06/16 06:57:52;;;;;;;1.08;0.55;;;;;;;22.64;62.05;102236.31;5065964;28;20492;-82
2022/06/16 07:00:19;;;;;;;2.50;0.57;;;;;;;23.48;57.93;102240.72;5053917;28;20053;-82
2022/06/16 07:02:44;;;;;;;2.83;0.43;;;;;;;24.01;55.57;102241.69;5026972;28;20074;-82
2022/06/16 07:05:10;;;;;;;0.93;0.63;;;;;;;24.29;55.75;102227.16;5012164;28;20407;-82
2022/06/16 07:07:37;;;;;;;2.15;0.70;;;;;;;24.66;54.31;102245.66;5028607;28;20430;-82
2022/06/16 07:10:05;;;;;;;1.27;0.30;;;;;;;24.95;51.06;102226.25;5028644;28;20081;-82
2022/06/16 07:12:31;;;;;;;2.53;0.52;;;;;;;25.19;51.51;102229.28;5028640;28;20119;-82
2022/06/16 07:14:57;;;;;;;6.53;0.95;;;;;;;24.90;50.81;102244.97;5027380;28;20021;-82
2022/06/16 07:17:23;;;;;;;2.55;0.60;;;;;;;23.45;54.82;102208.75;5029236;28;20106;-82
2022/06/16 07:19:49;;;;;;;1.00;0.50;;;;;;;23.94;55.44;102234.63;5046180;28;20083;-82
2022/06/16 07:22:15;;;;;;;1.42;0.35;;;;;;;24.64;54.19;102197.28;5026537;28;20521;-82
2022/06/16 07:24:40;;;;;;;1.67;0.40;;;;;;;25.48;52.39;102232.50;5046248;28;20060;-83
2022/06/16 07:27:07;;;;;;;0.52;0.22;;;;;;;26.31;50.40;102239.69;5047314;28;20107;-83
2022/06/16 07:29:33;;;;;;;1.80;0.40;;;;;;;26.39;48.64;102225.84;5051148;28;20465;-82
2022/06/16 07:31:58;;;;;;;1.70;0.40;;;;;;;26.61;48.87;102242.53;5032056;28;20576;-82
2022/06/16 07:34:25;;;;;;;2.30;0.50;;;;;;;26.84;48.57;102236.47;5050087;28;20116;-82
2022/06/16 07:36:51;;;;;;;0.70;0.20;;;;;;;27.17;48.07;102240.69;5031168;28;20063;-82
2022/06/16 07:39:16;;;;;;;1.02;0.30;;;;;;;27.65;47.63;102261.56;5050498;28;20529;-82
2022/06/16 07:41:42;;;;;;;1.33;0.60;;;;;;;28.01;45.75;102246.25;5015014;28;20029;-82
2022/06/16 07:44:10;;;;;;;0.85;0.35;;;;;;;28.34;45.09;102274.75;5015250;28;20297;-82
2022/06/16 07:46:37;;;;;;;2.75;0.30;;;;;;;28.36;45.35;102272.63;5048765;28;20457;-82
2022/06/16 07:49:04;;;;;;;0.30;0.20;;;;;;;28.74;44.25;102293.88;5030951;28;20091;-82
2022/06/16 07:51:30;;;;;;;2.25;0.52;;;;;;;28.94;43.73;102290.81;5032513;28;20028;-82
2022/06/16 07:53:56;;;;;;;2.15;0.40;;;;;;;28.90;45.00;102290.47;5015443;28;20078;-82
2022/06/16 07:56:21;;;;;;;1.05;0.60;;;;;;;29.06;43.66;102288.06;5047025;28;20032;-82
2022/06/16 07:58:47;;;;;;;0.70;0.30;;;;;;;28.84;44.89;102269.69;5032121;28;20059;-82
2022/06/16 08:01:13;;;;;;;0.63;0.28;;;;;;;29.19;39.64;102284.31;5048736;28;20466;-82
2022/06/16 08:03:38;;;;;;;0.98;0.40;;;;;;;29.56;41.05;102287.47;5031503;28;20057;-82
2022/06/16 08:06:08;;;;;;;1.98;0.47;;;;;;;29.68;40.61;102282.81;5048374;28;20027;-82
2022/06/16 08:08:33;;;;;;;1.10;0.40;;;;;;;29.74;37.89;102256.56;5049784;28;20100;-81
2022/06/16 08:10:59;;;;;;;1.67;0.43;;;;;;;29.70;39.57;102249.94;5049299;28;20032;-81
2022/06/16 08:13:26;;;;;;;0.28;0.15;;;;;;;29.57;39.43;102263.81;5015185;28;20040;-81
2022/06/16 08:15:52;;;;;;;1.27;0.45;;;;;;;29.84;38.89;102272.25;5031297;28;20029;-81
2022/06/16 08:18:21;;;;;;;1.85;0.32;;;;;;;30.28;38.93;102251.50;5030347;28;20481;-81
2022/06/16 08:20:48;;;;;;;0.70;0.30;;;;;;;30.49;39.60;102246.38;5044664;28;20021;-81
2022/06/16 08:23:14;;;;;;;1.30;0.38;;;;;;;31.23;37.59;102266.97;5048828;28;20025;-81
2022/06/16 08:25:44;;;;;;;0.47;0.30;;;;;;;31.34;36.53;102247.75;5029511;28;20420;-81
2022/06/16 08:28:13;;;;;;;2.08;0.60;;;;;;;31.10;35.34;102249.94;5049228;28;20040;-81
2022/06/16 08:30:44;;;;;;;1.02;0.40;;;;;;;30.83;37.08;102257.19;5024549;28;20033;-81
2022/06/16 08:33:09;;;;;;;2.20;0.60;;;;;;;31.01;36.26;102265.09;5028069;28;20544;-81
2022/06/16 08:35:36;;;;;;;1.40;0.20;;;;;;;31.33;37.33;102253.44;5048331;28;20121;-81
2022/06/16 08:38:01;;;;;;;1.60;0.40;;;;;;;31.56;35.74;102266.81;5047320;28;20033;-81
2022/06/16 08:40:28;;;;;;;1.05;0.40;;;;;;;31.93;36.23;102277.00;5014492;28;20029;-81
2022/06/16 08:42:58;;;;;;;1.15;0.22;;;;;;;31.86;36.20;102270.94;5029622;28;20133;-81
2022/06/16 08:45:36;;;;;;;1.63;0.30;;;;;;;32.47;36.28;102284.28;5048294;28;20028;-81
2022/06/16 08:48:11;;;;;;;3.45;0.50;;;;;;;32.86;35.17;102286.72;5029246;28;20032;-81
2022/06/16 08:50:58;;;;;;;1.40;0.40;;;;;;;32.53;34.38;102282.41;5045831;28;20035;-81
2022/06/16 08:53:51;;;;;;;3.72;0.70;;;;;;;32.27;34.80;102274.03;5022751;28;20502;-81
2022/06/16 08:56:39;;;;;;;1.73;0.47;;;;;;;30.90;35.07;102253.22;5020609;28;20333;-81
2022/06/16 08:59:25;;;;;;;0.70;0.40;;;;;;;31.79;36.33;102275.78;5045775;28;20392;-81
2022/06/16 09:02:29;;;;;;;1.38;0.50;;;;;;;32.56;35.40;102279.19;5060957;28;20047;-81
2022/06/16 09:05:07;;;;;;;1.20;0.55;;;;;;;33.01;34.09;102269.53;4989580;28;20041;-81
2022/06/16 09:07:44;;;;;;;1.05;0.50;;;;;;;33.68;33.81;102270.59;5005057;28;20069;-82
2022/06/16 09:10:35;;;;;;;1.10;0.52;;;;;;;33.63;32.17;102288.97;5005527;28;20758;-81
2022/06/16 09:13:05;;;;;;;2.13;0.40;;;;;;;33.43;32.95;102286.94;4988785;28;20060;-81
2022/06/16 09:15:46;;;;;;;2.03;0.60;;;;;;;33.34;33.92;102273.81;5005884;28;20088;-82
2022/06/16 09:18:33;;;;;;;1.63;0.40;;;;;;;33.59;32.23;102292.22;5002099;28;20033;-82
2022/06/16 09:21:28;;;;;;;0.55;0.32;;;;;;;33.16;32.96;102266.09;5005173;28;20468;-82
2022/06/16 09:24:28;;;;;;;0.60;0.40;;;;;;;33.66;33.03;102291.97;4988277;28;20037;-82
2022/06/16 09:26:53;;;;;;;;;;;;;;;33.76;33.37;102291.16;5004246;28;20158;-82
2022/06/16 09:29:36;;;;;;;2.35;0.60;;;;;;;33.85;33.88;102297.75;5005518;28;20311;-82
2022/06/16 09:32:21;;;;;;;0.80;0.40;;;;;;;34.06;34.22;102295.00;4985776;28;20084;-81
2022/06/16 09:35:00;;;;;;;0.82;0.50;;;;;;;34.18;34.51;102298.31;4988665;28;20116;-81
2022/06/16 09:37:38;;;;;;;;;;;;;;;34.02;34.30;102297.47;5005064;28;20028;-81
2022/06/16 09:40:13;;;;;;;0.50;0.40;;;;;;;33.55;33.55;102287.53;5064220;28;20346;-81
2022/06/16 09:42:49;;;;;;;0.60;0.40;;;;;;;31.49;36.10;102287.22;5066859;28;20508;-81
2022/06/16 09:45:20;;;;;;;1.13;0.60;;;;;;;32.93;36.75;102308.38;5067595;28;20029;-81
2022/06/16 09:48:23;;;;;;;1.08;0.60;;;;;;;34.11;34.32;102303.22;5066419;28;20155;-81
2022/06/16 09:51:00;;;;;;;1.15;0.40;;;;;;;34.46;33.30;102304.31;5004083;28;20041;-81
2022/06/16 09:53:28;;;;;;;3.92;0.80;;;;;;;35.07;34.45;102304.16;4985553;28;20121;-81
2022/06/16 09:56:09;;;;;;;2.25;0.63;;;;;;;33.65;34.05;102297.72;5003774;28;20030;-81
2022/06/16 09:58:52;;;;;;;2.58;0.82;;;;;;;33.26;35.82;102276.25;5003751;28;20025;-81
2022/06/16 10:01:20;;;;;;;1.17;0.50;;;;;;;34.13;34.79;102274.50;5002164;28;20046;-81
2022/06/16 10:03:49;;;;;;;1.08;0.50;;;;;;;34.26;33.19;102300.50;4988157;28;20022;-81
2022/06/16 10:06:33;;;;;;;2.45;0.70;;;;;;;34.70;32.35;102305.38;5003809;28;20567;-81
2022/06/16 10:09:35;;;;;;;0.85;0.50;;;;;;;34.68;33.00;102313.06;4980922;28;20026;-81
2022/06/16 10:12:19;;;;;;;0.70;0.40;;;;;;;35.54;32.72;102322.06;5002953;28;20041;-81
2022/06/16 10:15:10;;;;;;;1.35;0.80;;;;;;;35.65;34.30;102314.63;4987080;28;20057;-81
2022/06/16 10:17:38;;;;;;;1.38;0.70;;;;;;;35.53;33.27;102297.66;5002306;28;20034;-81
2022/06/16 10:20:04;;;;;;;1.65;0.80;;;;;;;35.90;33.46;102321.84;4985580;28;20209;-81
2022/06/16 10:22:31;;;;;;;2.05;1.00;;;;;;;35.83;32.89;102305.69;5001278;28;20144;-81
2022/06/16 10:25:02;;;;;;;1.25;0.65;;;;;;;35.97;31.80;102327.00;5003118;28;20034;-81
2022/06/16 10:27:52;;;;;;;1.20;0.57;;;;;;;36.09;32.03;102334.91;5072902;28;20432;-81
2022/06/16 10:30:34;;;;;;;2.33;0.98;;;;;;;36.10;32.35;102314.56;5066452;28;20024;-81
2022/06/16 10:33:16;;;;;;;1.40;0.80;;;;;;;35.84;31.63;102317.50;5061722;28;20035;-81
2022/06/16 10:35:59;;;;;;;1.23;0.57;;;;;;;35.89;33.30;102347.69;5065943;28;20404;-82
2022/06/16 10:38:35;;;;;;;0.75;0.50;;;;;;;35.83;32.89;102349.66;5064618;28;20372;-81
2022/06/16 10:41:21;;;;;;;1.45;0.70;;;;;;;36.86;31.69;102359.78;5066130;28;20036;-81
2022/06/16 10:43:47;;;;;;;2.55;1.00;;;;;;;36.07;33.18;102350.84;5059271;28;20059;-82
2022/06/16 10:46:22;;;;;;;3.25;0.75;;;;;;;36.58;33.69;102350.41;5066735;28;20361;-82
2022/06/16 10:48:53;;;;;;;1.73;0.63;;;;;;;36.32;32.58;102339.66;5066439;28;20020;-82
2022/06/16 10:51:22;;;;;;;2.40;0.70;;;;;;;35.57;32.29;102324.25;5082138;28;20021;-81
2022/06/16 10:54:21;;;;;;;1.35;0.80;;;;;;;35.75;32.85;102342.00;5067056;28;20023;-81
2022/06/16 10:56:47;;;;;;;1.42;0.90;;;;;;;35.59;33.41;102343.19;5065000;28;20071;-81
2022/06/16 10:59:24;;;;;;;1.58;0.57;;;;;;;36.17;32.84;102326.06;5062742;28;20060;-81
2022/06/16 11:02:01;;;;;;;2.28;0.98;;;;;;;37.15;31.86;102354.25;5029084;28;20549;-81
2022/06/16 11:04:36;;;;;;;1.60;0.90;;;;;;;37.45;30.60;102335.66;5049593;28;20487;-81
2022/06/16 11:07:03;;;;;;;0.88;0.63;;;;;;;37.37;30.90;102350.09;5049844;28;20415;-81
2022/06/16 11:09:32;;;;;;;1.58;0.88;;;;;;;37.10;31.91;102354.28;5049587;28;20076;-81
2022/06/16 11:12:04;;;;;;;2.22;0.43;;;;;;;37.24;32.12;102324.94;5032244;28;20025;-81
2022/06/16 11:14:38;;;;;;;1.50;0.80;;;;;;;37.01;32.48;102350.53;5032593;28;20063;-81
2022/06/16 11:17:11;;;;;;;0.90;0.68;;;;;;;37.33;32.01;102346.31;5049668;28;20060;-81
2022/06/16 11:19:44;;;;;;;1.63;0.77;;;;;;;37.85;31.43;102361.81;5050222;28;20420;-81
2022/06/16 11:22:32;;;;;;;1.30;0.60;;;;;;;38.03;30.46;102349.16;5049255;28;20032;-81
2022/06/16 11:25:13;;;;;;;1.77;0.65;;;;;;;37.82;30.89;102339.53;5027778;28;20024;-81
2022/06/16 11:28:01;;;;;;;1.48;0.68;;;;;;;37.18;30.73;102366.59;5047237;28;20074;-81
2022/06/16 11:30:47;;;;;;;1.50;0.90;;;;;;;37.71;30.58;102369.19;5038754;28;20154;-81
2022/06/16 11:36:28;;;;;;;3.65;1.02;;;;;;;35.71;32.30;102362.91;5048574;28;20116;-81
2022/06/16 11:39:12;;;;;;;1.30;0.80;;;;;;;36.06;31.44;102325.28;5020775;28;20025;-81
2022/06/16 11:41:41;;;;;;;1.08;0.70;;;;;;;37.07;31.33;102341.09;5023096;28;20493;-81
2022/06/16 11:44:41;;;;;;;3.70;0.98;;;;;;;35.79;31.54;102336.78;5050517;28;20028;-81
2022/06/16 11:47:15;;;;;;;1.15;0.60;;;;;;;37.10;30.60;102370.00;5031055;28;20056;-81
2022/06/16 11:50:18;;;;;;;1.40;0.50;;;;;;;37.64;30.87;102366.81;5049112;28;20025;-81
2022/06/16 11:52:44;;;;;;;1.95;0.82;;;;;;;37.12;30.04;102378.78;5049198;28;20021;-81
2022/06/16 11:55:34;;;;;;;1.13;0.63;;;;;;;36.82;31.06;102354.06;5029046;28;20043;-81
2022/06/16 11:58:31;;;;;;;0.80;0.60;;;;;;;37.63;30.87;102380.88;5030575;28;20630;-81
2022/06/16 12:01:05;;;;;;;1.33;0.77;;;;;;;37.85;29.94;102383.06;5059587;28;20462;-81
2022/06/16 12:03:52;;;;;;;1.73;0.70;;;;;;;37.65;29.61;102386.91;5084437;28;20037;-80
2022/06/16 12:06:44;;;;;;;1.02;0.50;;;;;;;37.44;30.85;102369.84;5062622;28;20032;-80
2022/06/16 12:09:20;;;;;;;2.85;0.75;;;;;;;37.61;31.77;102394.97;5068954;28;20052;-81
2022/06/16 12:12:03;;;;;;;1.13;0.63;;;;;;;37.20;31.65;102402.91;5068725;28;20028;-81